createdAt,value
2018-09-21T00:02:27.461Z,3.47
2018-09-21T00:04:56.098Z,3.27
2018-09-21T00:07:24.632Z,4.03
2018-09-21T00:09:53.203Z,3.60
2018-09-21T00:12:21.797Z,3.73
2018-09-21T00:14:50.380Z,3.30
2018-09-21T00:17:18.849Z,4.20
2018-09-21T00:19:47.445Z,4.40
2018-09-21T00:22:16.006Z,3.93
2018-09-21T00:24:44.518Z,3.80
2018-09-21T00:27:13.010Z,4.20
2018-09-21T00:29:41.521Z,3.47
2018-09-21T00:32:10.092Z,3.97
2018-09-21T00:34:38.600Z,3.50
2018-09-21T00:37:07.249Z,3.70
2018-09-21T00:39:35.742Z,3.67
2018-09-21T00:42:04.261Z,3.73
2018-09-21T00:44:32.764Z,3.60
2018-09-21T00:47:01.253Z,3.60
2018-09-21T00:49:29.822Z,3.40
2018-09-21T00:51:58.342Z,3.73
2018-09-21T00:54:26.870Z,3.80
2018-09-21T00:56:55.397Z,3.97
2018-09-21T00:59:24.039Z,4.07
2018-09-21T01:01:52.533Z,4.20
2018-09-21T01:04:21.057Z,3.57
2018-09-21T01:06:49.601Z,3.77
2018-09-21T01:09:18.132Z,4.23
2018-09-21T01:11:46.700Z,4.17
2018-09-21T01:14:15.155Z,4.27
2018-09-21T01:16:43.697Z,4.33
2018-09-21T01:19:12.157Z,4.23
2018-09-21T01:21:40.637Z,3.70
2018-09-21T01:24:09.204Z,3.83
2018-09-21T01:26:37.689Z,3.97
2018-09-21T01:29:06.413Z,3.93
2018-09-21T01:31:35.050Z,3.93
2018-09-21T01:34:03.540Z,3.83
2018-09-21T01:36:32.093Z,3.70
2018-09-21T01:39:00.580Z,3.80
2018-09-21T01:41:29.052Z,4.03
2018-09-21T01:43:57.756Z,4.13
2018-09-21T01:46:26.252Z,4.37
2018-09-21T01:48:54.734Z,4.80
2018-09-21T01:51:23.258Z,3.77
2018-09-21T01:53:51.773Z,4.10
2018-09-21T01:56:20.361Z,4.33
2018-09-21T01:58:48.940Z,4.60
2018-09-21T02:01:17.444Z,3.70
2018-09-21T02:03:46.044Z,3.80
2018-09-21T02:06:14.528Z,3.97
2018-09-21T02:08:43.021Z,4.33
2018-09-21T02:11:11.572Z,4.23
2018-09-21T02:13:40.121Z,4.50
2018-09-21T02:16:08.601Z,4.13
2018-09-21T02:18:37.085Z,4.50
2018-09-21T02:21:05.569Z,4.30
2018-09-21T02:23:34.034Z,4.20
2018-09-21T02:26:02.612Z,4.57
2018-09-21T02:28:31.123Z,4.83
2018-09-21T02:30:59.608Z,4.30
2018-09-21T02:33:28.134Z,4.00
2018-09-21T02:35:56.656Z,4.27
2018-09-21T02:38:25.178Z,4.37
2018-09-21T02:40:53.708Z,3.87
2018-09-21T02:43:22.151Z,4.33
2018-09-21T02:45:50.667Z,4.47
2018-09-21T02:48:19.120Z,3.97
2018-09-21T02:50:47.636Z,3.87
2018-09-21T02:53:16.071Z,3.90
2018-09-21T02:55:44.557Z,4.00
2018-09-21T02:58:13.031Z,4.70
2018-09-21T03:00:41.701Z,5.33
2018-09-21T03:03:10.163Z,4.00
2018-09-21T03:05:38.669Z,4.33
2018-09-21T03:08:07.157Z,4.47
2018-09-21T03:10:35.665Z,4.20
2018-09-21T03:13:04.233Z,3.93
2018-09-21T03:15:32.768Z,4.30
2018-09-21T03:18:01.533Z,4.90
2018-09-21T03:20:30.120Z,4.37
2018-09-21T03:22:58.720Z,3.13
2018-09-21T03:25:27.324Z,4.50
2018-09-21T03:27:55.918Z,4.00
2018-09-21T03:30:24.518Z,4.47
2018-09-21T03:32:53.117Z,4.27
2018-09-21T03:35:21.724Z,4.20
2018-09-21T03:37:50.335Z,4.10
2018-09-21T03:40:18.942Z,3.43
2018-09-21T03:42:47.543Z,4.10
2018-09-21T03:45:16.053Z,4.23
2018-09-21T03:47:44.631Z,4.10
2018-09-21T03:50:13.134Z,3.60
2018-09-21T03:52:41.716Z,4.27
2018-09-21T03:55:10.298Z,4.30
2018-09-21T03:57:38.864Z,3.67
2018-09-21T04:00:07.997Z,3.57
2018-09-21T04:02:36.968Z,4.60
2018-09-21T04:05:06.829Z,4.50
2018-09-21T04:07:35.459Z,4.30
2018-09-21T04:10:03.922Z,3.70
2018-09-21T04:12:32.469Z,4.53
2018-09-21T04:15:01.008Z,3.93
2018-09-21T04:17:29.498Z,3.67
2018-09-21T04:19:58.028Z,4.77
2018-09-21T04:22:26.571Z,4.17
2018-09-21T04:24:55.085Z,4.27
2018-09-21T04:27:23.581Z,4.33
2018-09-21T04:29:52.134Z,4.20
2018-09-21T04:32:20.630Z,4.20
2018-09-21T04:34:49.244Z,4.60
2018-09-21T04:37:17.760Z,4.63
2018-09-21T04:39:46.325Z,4.30
2018-09-21T04:42:14.891Z,4.50
2018-09-21T04:44:43.448Z,4.30
2018-09-21T04:47:11.933Z,3.80
2018-09-21T04:49:40.654Z,4.40
2018-09-21T04:52:09.378Z,4.37
2018-09-21T04:54:38.112Z,4.80
2018-09-21T04:57:07.001Z,4.60
2018-09-21T04:59:35.828Z,4.47
2018-09-21T05:02:04.677Z,4.40
2018-09-21T05:04:33.429Z,4.60
2018-09-21T05:07:02.329Z,4.70
2018-09-21T05:09:30.932Z,4.47
2018-09-21T05:11:59.668Z,5.03
2018-09-21T05:14:28.486Z,4.77
2018-09-21T05:16:57.170Z,4.80
2018-09-21T05:19:26.192Z,5.17
2018-09-21T05:21:54.892Z,4.90
2018-09-21T05:24:23.678Z,4.70
2018-09-21T05:26:52.464Z,4.77
2018-09-21T05:29:21.204Z,4.83
2018-09-21T05:31:50.150Z,4.63
2018-09-21T05:34:18.917Z,4.70
2018-09-21T05:36:47.618Z,4.97
2018-09-21T05:39:16.814Z,5.37
2018-09-21T05:41:45.866Z,5.07
2018-09-21T05:44:14.538Z,5.03
2018-09-21T05:46:43.508Z,4.80
2018-09-21T05:49:13.202Z,5.60
2018-09-21T05:51:42.399Z,6.10
2018-09-21T05:54:11.296Z,5.40
2018-09-21T05:56:40.748Z,5.97
2018-09-21T05:59:09.220Z,5.27
2018-09-21T06:01:37.930Z,4.97
2018-09-21T06:04:06.481Z,5.57
2018-09-21T06:06:35.076Z,5.57
2018-09-21T06:09:04.482Z,5.67
2018-09-21T06:11:33.368Z,5.20
2018-09-21T06:14:02.013Z,4.87
2018-09-21T06:16:30.470Z,5.10
2018-09-21T06:18:59.049Z,5.27
2018-09-21T06:21:27.620Z,6.10
2018-09-21T06:23:56.231Z,5.43
2018-09-21T06:26:24.856Z,4.90
2018-09-21T06:28:53.716Z,5.63
2018-09-21T06:31:22.347Z,5.60
2018-09-21T06:33:51.369Z,5.50
2018-09-21T06:36:20.504Z,6.07
2018-09-21T06:38:49.311Z,5.80
2018-09-21T06:41:17.914Z,5.57
2018-09-21T06:43:46.631Z,5.60
2018-09-21T06:46:15.841Z,5.13
2018-09-21T06:48:44.525Z,5.37
2018-09-21T06:51:13.135Z,4.80
2018-09-21T06:53:41.700Z,5.60
2018-09-21T06:56:10.346Z,5.97
2018-09-21T06:58:38.987Z,5.83
2018-09-21T07:01:08.086Z,5.77
2018-09-21T07:03:36.753Z,6.03
2018-09-21T07:06:05.311Z,5.27
2018-09-21T07:08:33.831Z,5.90
2018-09-21T07:11:02.355Z,5.73
2018-09-21T07:13:30.911Z,5.40
2018-09-21T07:15:59.742Z,5.50
2018-09-21T07:18:28.394Z,4.90
2018-09-21T07:20:57.027Z,4.90
2018-09-21T07:23:25.637Z,4.50
2018-09-21T07:25:54.353Z,5.70
2018-09-21T07:28:23.206Z,5.13
2018-09-21T07:30:51.955Z,5.33
2018-09-21T07:33:20.524Z,4.20
2018-09-21T07:35:54.937Z,4.60
2018-09-21T07:38:28.831Z,4.87
2018-09-21T07:41:02.426Z,4.57
2018-09-21T07:43:31.212Z,4.67
2018-09-21T07:45:59.870Z,4.90
2018-09-21T07:48:28.478Z,4.53
2018-09-21T07:50:57.060Z,4.17
2018-09-21T07:53:25.792Z,4.17
2018-09-21T07:55:54.405Z,4.77
2018-09-21T07:58:23.104Z,3.30
2018-09-21T08:00:51.674Z,4.17
2018-09-21T08:03:20.460Z,4.23
2018-09-21T08:05:49.012Z,4.50
2018-09-21T08:08:17.630Z,4.50
2018-09-21T08:10:46.255Z,3.77
2018-09-21T08:13:15.060Z,3.87
2018-09-21T08:15:43.979Z,3.77
2018-09-21T08:18:16.652Z,3.63
2018-09-21T08:20:45.466Z,3.20
2018-09-21T08:23:14.171Z,3.17
2018-09-21T08:25:42.793Z,3.93
2018-09-21T08:28:11.438Z,3.23
2018-09-21T08:30:40.307Z,3.40
2018-09-21T08:33:09.042Z,4.00
2018-09-21T08:35:37.605Z,3.57
2018-09-21T08:38:06.362Z,3.00
2018-09-21T08:40:35.109Z,4.00
2018-09-21T08:43:03.744Z,3.57
2018-09-21T08:45:32.484Z,3.70
2018-09-21T08:48:01.230Z,3.60
2018-09-21T08:50:29.922Z,3.60
2018-09-21T08:52:58.699Z,4.10
2018-09-21T08:55:27.550Z,4.70
2018-09-21T08:58:04.328Z,3.60
2018-09-21T09:00:32.930Z,3.30
2018-09-21T09:03:01.647Z,3.10
2018-09-21T09:05:30.696Z,3.23
2018-09-21T09:07:59.418Z,5.97
2018-09-21T09:10:28.114Z,2.53
2018-09-21T09:12:56.744Z,2.00
2018-09-21T09:15:25.317Z,2.43
2018-09-21T09:17:53.768Z,2.07
2018-09-21T09:20:22.376Z,2.60
2018-09-21T09:22:51.119Z,2.00
2018-09-21T09:25:19.807Z,2.77
2018-09-21T09:52:03.711Z,1.70
2018-09-21T09:54:32.300Z,1.63
2018-09-21T09:57:00.960Z,1.90
2018-09-21T09:59:29.821Z,2.27
2018-09-21T10:01:58.571Z,2.13
2018-09-21T10:04:27.150Z,1.50
2018-09-21T10:06:55.801Z,1.60
2018-09-21T10:09:24.452Z,2.77
2018-09-21T10:11:53.080Z,1.70
2018-09-21T10:14:21.934Z,2.53
2018-09-21T10:16:50.505Z,2.00
2018-09-21T10:19:19.132Z,1.70
2018-09-21T10:21:47.984Z,2.07
2018-09-21T10:24:16.727Z,2.60
2018-09-21T10:26:45.439Z,2.20
2018-09-21T10:29:14.096Z,2.03
2018-09-21T10:31:42.630Z,2.40
2018-09-21T10:34:11.177Z,1.60
2018-09-21T10:36:39.855Z,1.57
2018-09-21T10:39:08.869Z,2.33
2018-09-21T10:41:37.646Z,2.13
2018-09-21T10:44:07.794Z,3.63
2018-09-21T10:46:36.539Z,2.17
2018-09-21T10:49:05.015Z,2.83
2018-09-21T10:51:33.721Z,2.97
2018-09-21T10:54:02.431Z,2.37
2018-09-21T10:56:30.974Z,2.37
2018-09-21T10:58:59.591Z,2.17
2018-09-21T11:01:28.248Z,2.27
2018-09-21T11:03:57.012Z,2.00
2018-09-21T11:06:25.736Z,2.10
2018-09-21T11:08:54.324Z,2.60
2018-09-21T11:11:22.977Z,2.90
2018-09-21T11:13:51.756Z,1.90
2018-09-21T11:16:20.487Z,2.23
2018-09-21T11:18:49.088Z,3.07
2018-09-21T11:21:17.635Z,2.37
2018-09-21T11:23:46.116Z,2.53
2018-09-21T11:26:14.691Z,2.50
2018-09-21T11:28:43.288Z,2.57
2018-09-21T11:31:11.733Z,2.63
2018-09-21T11:33:40.201Z,3.00
2018-09-21T11:36:08.691Z,2.73
2018-09-21T11:38:37.287Z,2.87
2018-09-21T11:41:05.891Z,2.53
2018-09-21T11:43:34.388Z,2.83
2018-09-21T11:46:02.935Z,2.00
2018-09-21T11:48:31.781Z,2.77
2018-09-21T11:51:00.259Z,2.73
2018-09-21T11:53:28.809Z,2.60
2018-09-21T11:55:57.403Z,3.10
2018-09-21T11:58:25.931Z,2.50
2018-09-21T12:00:54.591Z,2.30
2018-09-21T12:03:23.258Z,2.20
2018-09-21T12:05:51.818Z,2.60
2018-09-21T12:08:20.441Z,2.50
2018-09-21T12:10:49.108Z,2.50
2018-09-21T12:13:17.656Z,2.80
2018-09-21T12:15:46.244Z,2.80
2018-09-21T12:18:14.820Z,3.10
2018-09-21T12:20:43.406Z,2.60
2018-09-21T12:23:11.934Z,3.70
2018-09-21T12:25:40.540Z,2.60
2018-09-21T12:28:09.083Z,3.37
2018-09-21T12:30:37.686Z,4.03
2018-09-21T12:33:06.287Z,2.87
2018-09-21T12:35:34.886Z,2.73
2018-09-21T12:38:03.569Z,2.40
2018-09-21T12:40:32.489Z,3.20
2018-09-21T12:43:01.057Z,2.60
2018-09-21T12:45:29.551Z,2.20
2018-09-21T12:47:58.155Z,2.93
2018-09-21T12:50:26.726Z,2.77
2018-09-21T12:52:55.216Z,2.40
2018-09-21T12:55:23.740Z,2.23
2018-09-21T12:57:52.285Z,2.40
2018-09-21T13:00:20.779Z,2.50
2018-09-21T13:02:49.350Z,3.67
2018-09-21T13:05:17.850Z,1.93
2018-09-21T13:07:46.470Z,3.60
2018-09-21T13:10:15.037Z,2.40
2018-09-21T13:12:43.586Z,2.00
2018-09-21T13:15:12.167Z,2.50
2018-09-21T13:17:40.774Z,2.30
2018-09-21T13:20:09.337Z,2.10
2018-09-21T13:22:38.052Z,1.77
2018-09-21T13:25:06.681Z,2.10
2018-09-21T13:27:35.189Z,1.90
2018-09-21T13:30:04.264Z,1.80
2018-09-21T13:32:32.844Z,2.27
2018-09-21T13:35:01.378Z,2.40
2018-09-21T13:37:29.856Z,1.73
2018-09-21T13:39:58.350Z,1.07
2018-09-21T13:42:27.014Z,1.47
2018-09-21T13:44:55.667Z,1.60
2018-09-21T13:47:24.131Z,1.27
2018-09-21T13:49:52.596Z,1.30
2018-09-21T13:52:21.111Z,1.50
2018-09-21T13:54:51.092Z,2.03
2018-09-21T13:57:19.523Z,1.50
2018-09-21T13:59:48.085Z,1.60
2018-09-21T14:02:16.597Z,1.73
2018-09-21T14:04:45.094Z,1.23
2018-09-21T14:07:13.594Z,1.10
2018-09-21T14:09:42.228Z,0.90
2018-09-21T14:12:10.687Z,1.30
2018-09-21T14:14:39.166Z,1.47
2018-09-21T14:17:07.734Z,1.40
2018-09-21T14:19:36.273Z,1.33
2018-09-21T14:22:04.680Z,1.37
2018-09-21T14:24:33.150Z,1.40
2018-09-21T14:27:01.623Z,1.50
2018-09-21T14:29:30.154Z,1.63
2018-09-21T14:31:58.742Z,0.90
2018-09-21T14:34:27.213Z,1.30
2018-09-21T14:36:55.771Z,1.33
2018-09-21T14:39:24.411Z,1.57
2018-09-21T14:41:52.946Z,1.57
2018-09-21T14:44:21.818Z,0.87
2018-09-21T14:46:50.403Z,1.30
2018-09-21T14:49:18.893Z,1.20
2018-09-21T14:51:47.529Z,1.43
2018-09-21T14:54:16.204Z,1.40
2018-09-21T14:56:44.808Z,1.43
2018-09-21T14:59:13.394Z,1.20
2018-09-21T15:01:42.012Z,1.27
2018-09-21T15:04:10.682Z,1.30
2018-09-21T15:06:39.200Z,1.63
2018-09-21T15:09:09.081Z,1.47
2018-09-21T15:11:37.750Z,1.87
2018-09-21T15:14:06.332Z,1.33
2018-09-21T15:16:34.908Z,1.00
2018-09-21T15:19:03.487Z,1.07
2018-09-21T15:21:32.009Z,1.23
2018-09-21T15:24:00.543Z,1.20
2018-09-21T15:26:29.128Z,1.47
2018-09-21T15:28:57.873Z,1.10
2018-09-21T15:31:26.494Z,1.00
2018-09-21T15:33:55.101Z,1.20
2018-09-21T15:36:23.695Z,1.33
2018-09-21T15:38:52.265Z,1.53
2018-09-21T15:41:20.800Z,1.80
2018-09-21T15:43:49.377Z,1.60
2018-09-21T15:46:18.883Z,2.27
2018-09-21T15:48:47.452Z,1.60
2018-09-21T15:51:15.943Z,1.30
2018-09-21T15:53:44.479Z,1.27
2018-09-21T15:56:13.450Z,2.40
2018-09-21T16:04:23.846Z,1.90
2018-09-21T16:06:53.099Z,1.67
2018-09-21T16:09:21.837Z,1.07
2018-09-21T16:11:50.348Z,1.10
2018-09-21T16:14:18.961Z,2.13
2018-09-21T16:16:47.593Z,1.60
2018-09-21T16:19:16.132Z,0.97
2018-09-21T16:21:44.723Z,0.97
2018-09-21T16:24:13.277Z,0.80
2018-09-21T16:26:42.107Z,1.30
2018-09-21T16:29:10.645Z,1.90
2018-09-21T16:31:39.619Z,0.80
2018-09-21T16:34:09.295Z,1.90
2018-09-21T16:36:37.920Z,2.30
2018-09-21T16:39:08.792Z,1.80
2018-09-21T16:41:37.484Z,1.27
2018-09-21T16:44:06.497Z,1.17
2018-09-21T16:46:35.324Z,0.90
2018-09-21T16:49:03.971Z,1.17
2018-09-21T16:51:32.515Z,1.93
2018-09-21T16:54:01.169Z,1.00
2018-09-21T16:56:29.698Z,1.30
2018-09-21T16:58:58.595Z,1.53
2018-09-21T17:01:27.415Z,1.10
2018-09-21T17:03:56.226Z,0.87
2018-09-21T17:06:24.878Z,0.93
2018-09-21T17:08:53.715Z,3.80
2018-09-21T17:11:22.573Z,1.57
2018-09-21T17:13:51.391Z,1.77
2018-09-21T17:16:20.117Z,1.80
2018-09-21T17:18:48.760Z,1.60
2018-09-21T17:21:17.357Z,2.20
2018-09-21T17:23:45.920Z,1.40
2018-09-21T17:26:14.558Z,1.40
2018-09-21T17:28:42.286Z,1.40
2018-09-21T17:31:10.940Z,2.17
2018-09-21T17:33:39.571Z,1.63
2018-09-21T17:36:08.153Z,1.20
2018-09-21T17:38:37.153Z,1.37
2018-09-21T17:41:05.732Z,2.10
2018-09-21T17:43:34.273Z,1.90
2018-09-21T17:46:02.872Z,0.90
2018-09-21T17:48:31.859Z,1.10
2018-09-21T17:51:00.985Z,1.90
2018-09-21T17:53:30.155Z,1.00
2018-09-21T17:55:58.828Z,1.17
2018-09-21T17:58:27.551Z,1.30
2018-09-21T18:00:56.370Z,1.00
2018-09-21T18:03:25.265Z,1.50
2018-09-21T18:05:53.981Z,1.30
2018-09-21T18:08:22.673Z,1.97
2018-09-21T18:10:51.460Z,1.70
2018-09-21T18:13:20.211Z,1.40
2018-09-21T18:15:49.140Z,1.57
2018-09-21T18:18:19.410Z,1.00
2018-09-21T18:20:48.252Z,0.70
2018-09-21T18:23:16.946Z,2.30
2018-09-21T18:25:45.747Z,1.00
2018-09-21T18:28:14.446Z,1.10
2018-09-21T18:30:43.102Z,1.70
2018-09-21T18:33:11.813Z,1.17
2018-09-21T18:35:40.642Z,0.97
2018-09-21T18:38:09.258Z,1.43
2018-09-21T18:40:38.026Z,1.40
2018-09-21T18:43:07.146Z,1.30
2018-09-21T18:45:35.872Z,2.27
2018-09-21T18:48:06.103Z,3.50
2018-09-21T18:50:36.479Z,1.50
2018-09-21T18:53:08.143Z,1.70
2018-09-21T18:55:38.079Z,1.43
2018-09-21T18:58:09.478Z,2.33
2018-09-21T19:00:39.427Z,1.57
2018-09-21T19:03:15.129Z,1.73
2018-09-21T19:05:45.392Z,1.83
2018-09-21T19:08:16.764Z,1.07
2018-09-21T19:10:53.151Z,1.60
2018-09-21T19:13:23.481Z,1.30
2018-09-21T19:15:54.586Z,1.20
2018-09-21T19:18:27.549Z,1.47
2018-09-21T19:21:00.090Z,1.00
2018-09-21T19:23:30.885Z,1.23
2018-09-21T19:26:00.835Z,1.33
2018-09-21T19:28:31.260Z,1.23
2018-09-21T19:31:01.655Z,1.20
2018-09-21T19:33:32.163Z,1.40
2018-09-21T19:36:01.945Z,1.17
2018-09-21T19:38:31.829Z,1.13
2018-09-21T19:41:01.636Z,1.30
2018-09-21T19:43:32.997Z,1.00
2018-09-21T19:46:03.626Z,1.33
2018-09-21T19:48:33.931Z,1.30
2018-09-21T19:51:03.728Z,1.13
2018-09-21T19:53:32.549Z,1.37
2018-09-21T19:56:01.183Z,1.23
2018-09-21T19:58:30.178Z,1.27
2018-09-21T20:00:58.906Z,0.97
2018-09-21T20:03:27.684Z,1.27
2018-09-21T20:05:56.844Z,1.10
2018-09-21T20:08:25.710Z,1.13
2018-09-21T20:10:54.538Z,1.37
2018-09-21T20:13:24.072Z,1.60
2018-09-21T20:15:53.411Z,2.30
2018-09-21T20:18:22.506Z,1.13
2018-09-21T20:20:52.534Z,1.50
2018-09-21T20:23:21.400Z,1.07
2018-09-21T20:25:50.141Z,1.60
2018-09-21T20:28:19.081Z,1.23
2018-09-21T20:30:53.253Z,1.37
2018-09-21T20:33:27.322Z,1.30
2018-09-21T20:35:56.535Z,1.67
2018-09-21T20:38:25.723Z,2.30
2018-09-21T20:40:54.387Z,1.37
2018-09-21T20:43:23.241Z,1.83
2018-09-21T20:45:52.099Z,1.60
2018-09-21T20:48:20.978Z,1.83
2018-09-21T20:50:49.619Z,1.37
2018-09-21T20:53:18.414Z,1.70
2018-09-21T20:55:47.640Z,1.57
2018-09-21T20:58:16.302Z,1.63
2018-09-21T21:00:45.139Z,1.63
2018-09-21T21:03:14.208Z,1.63
2018-09-21T21:05:43.001Z,1.73
2018-09-21T21:08:11.603Z,1.37
2018-09-21T21:10:40.676Z,1.60
2018-09-21T21:13:09.518Z,1.33
2018-09-21T21:15:38.261Z,1.93
2018-09-21T21:18:07.469Z,1.80
2018-09-21T21:20:36.354Z,2.03
2018-09-21T21:23:05.761Z,2.00
2018-09-21T21:25:34.778Z,1.80
2018-09-21T21:28:03.492Z,2.20
2018-09-21T21:30:32.479Z,1.70
2018-09-21T21:33:01.286Z,1.57
2018-09-21T21:35:30.470Z,2.00
2018-09-21T21:37:59.532Z,1.37
2018-09-21T21:40:28.725Z,1.50
2018-09-21T21:42:57.541Z,1.97
2018-09-21T21:45:26.441Z,1.87
2018-09-21T21:47:55.091Z,2.30
2018-09-21T21:50:24.062Z,1.90
2018-09-21T21:52:52.696Z,1.83
2018-09-21T21:55:21.545Z,1.80
2018-09-21T21:57:50.057Z,1.40
2018-09-21T22:00:18.568Z,3.07
2018-09-21T22:02:47.049Z,1.80
2018-09-21T22:05:15.472Z,2.30
2018-09-21T22:07:43.939Z,1.50
2018-09-21T22:10:12.418Z,1.93
2018-09-21T22:12:45.948Z,3.17
2018-09-21T22:15:18.112Z,2.10
2018-09-21T22:17:46.992Z,1.90
2018-09-21T22:20:15.628Z,2.23
2018-09-21T22:22:44.189Z,1.90
2018-09-21T22:25:12.818Z,1.70
2018-09-21T22:27:41.973Z,2.70
2018-09-21T22:30:10.522Z,2.20
2018-09-21T22:32:39.666Z,2.53
2018-09-21T22:35:08.225Z,1.93
2018-09-21T22:37:36.806Z,2.10
2018-09-21T22:40:05.368Z,1.93
2018-09-21T22:42:33.954Z,2.33
2018-09-21T22:45:02.578Z,1.83
2018-09-21T22:47:31.135Z,2.37
2018-09-21T22:49:59.712Z,2.20
2018-09-21T22:52:28.291Z,2.50
2018-09-21T22:54:56.875Z,2.27
2018-09-21T22:57:25.462Z,2.30
2018-09-21T22:59:53.930Z,1.93
2018-09-21T23:02:22.459Z,1.63
2018-09-21T23:04:51.094Z,2.17
2018-09-21T23:07:19.660Z,2.00
2018-09-21T23:09:48.288Z,2.10
2018-09-21T23:12:16.840Z,1.93
2018-09-21T23:14:45.365Z,2.50
2018-09-21T23:17:13.926Z,2.27
2018-09-21T23:19:42.478Z,2.00
2018-09-21T23:22:11.024Z,2.97
2018-09-21T23:24:39.563Z,2.40
2018-09-21T23:27:08.131Z,2.63
2018-09-21T23:29:36.721Z,3.07
2018-09-21T23:32:05.215Z,2.20
2018-09-21T23:34:33.930Z,2.43
2018-09-21T23:37:02.512Z,2.33
2018-09-21T23:39:31.101Z,1.77
2018-09-21T23:41:59.819Z,2.07
2018-09-21T23:44:28.561Z,2.03
2018-09-21T23:46:57.156Z,2.17
2018-09-21T23:49:25.801Z,2.10
2018-09-21T23:51:54.473Z,1.93
2018-09-21T23:54:23.124Z,2.40
2018-09-21T23:56:51.631Z,2.30
2018-09-21T23:59:20.211Z,2.13
